Time,TemperatureF,DewpointF,PressureIn,WindDirection,WindDirectionDegrees,WindSpeedMPH,WindSpeedGustMPH,Humidity,HourlyPrecipIn,Conditions,Clouds,dailyrainin,SoftwareType,DateUTC
2013-05-10 18:05:00,73.0,35.1,29.91,North,0,0.0,0.0,25,0.00,CLR,,0.55,WeatherDisplay:10.37,2013-05-10 22:05:00,
2013-05-10 18:08:00,72.5,33.6,26.95,East,95,2.7,2.7,24,0.00,CLR,,0.55,WeatherDisplay:10.37,2013-05-10 22:08:00,
2013-05-10 18:13:00,71.8,33.0,26.95,ESE,110,3.5,3.5,24,0.00,CLR,,0.55,WeatherDisplay:10.37,2013-05-10 22:13:00,
2013-05-10 18:18:00,71.1,32.4,26.95,East,91,4.6,4.6,24,0.00,CLR,,0.55,WeatherDisplay:10.37,2013-05-10 22:18:00,
2013-05-10 18:23:00,70.5,32.0,26.95,East,101,5.8,5.8,24,0.00,CLR,,0.55,WeatherDisplay:10.37,2013-05-10 22:23:00,
2013-05-10 18:28:00,70.2,31.7,26.95,East,85,3.5,3.5,24,0.00,CLR,,0.55,WeatherDisplay:10.37,2013-05-10 22:28:00,
2013-05-10 18:33:00,69.6,32.2,26.95,ESE,123,3.5,3.5,25,0.00,CLR,,0.55,WeatherDisplay:10.37,2013-05-10 22:33:00,
2013-05-10 18:38:00,69.3,31.9,26.95,East,100,3.5,3.5,25,0.00,CLR,,0.55,WeatherDisplay:10.37,2013-05-10 22:38:00,
2013-05-10 18:43:00,69.1,31.8,26.95,ESE,117,2.3,0.0,25,0.00,CLR,,0.55,WeatherDisplay:10.37,2013-05-10 22:43:00,
2013-05-10 18:48:00,68.9,31.6,26.95,West,261,3.5,3.5,25,0.00,CLR,,0.55,WeatherDisplay:10.37,2013-05-10 22:48:00,
2013-05-10 18:53:00,68.5,31.3,26.95,SSE,158,3.5,0.0,25,0.00,CLR,,0.55,WeatherDisplay:10.37,2013-05-10 22:53:00,
2013-05-10 18:58:00,68.2,31.0,26.95,SE,138,4.6,4.6,25,0.00,CLR,,0.55,WeatherDisplay:10.37,2013-05-10 22:58:00,
2013-05-10 19:03:00,67.8,30.7,26.95,SSE,149,4.9,0.0,25,0.00,CLR,,0.55,WeatherDisplay:10.37,2013-05-10 23:03:00,
2013-05-10 19:08:00,67.6,30.5,26.95,East,84,3.5,3.5,25,0.00,CLR,,0.55,WeatherDisplay:10.37,2013-05-10 23:08:00,
2013-05-10 19:13:00,67.5,30.4,26.95,East,84,0.0,0.0,25,0.00,CLR,,0.55,WeatherDisplay:10.37,2013-05-10 23:13:00,
2013-05-10 19:18:00,67.3,30.2,26.95,SE,133,0.0,0.0,25,0.00,CLR,,0.55,WeatherDisplay:10.37,2013-05-10 23:18:00,
2013-05-10 19:23:00,67.1,30.1,26.95,SE,133,2.3,0.0,25,0.00,CLR,,0.55,WeatherDisplay:10.37,2013-05-10 23:23:00,
2013-05-10 19:28:00,66.7,29.8,26.95,SE,133,0.0,0.0,25,0.00,CLR,,0.55,WeatherDisplay:10.37,2013-05-10 23:28:00,
2013-05-10 19:33:00,66.6,29.6,26.95,SE,133,0.0,0.0,25,0.00,CLR,,0.55,WeatherDisplay:10.37,2013-05-10 23:33:00,
2013-05-10 19:38:00,66.4,29.5,26.95,ENE,62,2.3,0.0,25,0.00,CLR,,0.55,WeatherDisplay:10.37,2013-05-10 23:38:00,
2013-05-10 19:43:00,66.4,29.5,26.95,ENE,62,2.3,2.3,25,0.00,CLR,,0.55,WeatherDisplay:10.37,2013-05-10 23:43:00,
2013-05-10 19:48:00,66.0,29.2,26.95,ENE,62,2.3,0.0,25,0.00,CLR,,0.55,WeatherDisplay:10.37,2013-05-10 23:48:00,
2013-05-10 19:53:00,65.7,28.8,26.95,ENE,62,2.3,0.0,25,0.00,CLR,,0.55,WeatherDisplay:10.37,2013-05-10 23:53:00,
2013-05-10 19:58:00,65.5,28.7,26.95,ENE,62,0.0,0.0,25,0.00,CLR,,0.55,WeatherDisplay:10.37,2013-05-10 23:58:00,
2013-05-10 20:03:00,65.1,28.4,26.95,ENE,62,0.0,0.0,25,0.00,CLR,,0.55,WeatherDisplay:10.37,2013-05-11 00:03:00,
2013-05-10 20:08:00,64.8,28.1,26.95,ENE,62,0.0,0.0,25,0.00,CLR,,0.55,WeatherDisplay:10.37,2013-05-11 00:08:00,
2013-05-10 20:13:00,64.6,27.9,26.95,ENE,62,0.0,0.0,25,0.00,CLR,,0.55,WeatherDisplay:10.37,2013-05-11 00:13:00,
2013-05-10 20:18:00,64.4,27.8,26.95,ENE,62,0.0,0.0,25,0.00,CLR,,0.55,WeatherDisplay:10.37,2013-05-11 00:18:00,
2013-05-10 20:23:00,64.2,28.6,26.95,ENE,62,0.0,0.0,26,0.00,CLR,,0.55,WeatherDisplay:10.37,2013-05-11 00:23:00,
2013-05-10 20:28:00,63.9,28.3,26.95,ENE,62,0.0,0.0,26,0.00,CLR,,0.55,WeatherDisplay:10.37,2013-05-11 00:28:00,
2013-05-10 20:33:00,63.7,28.1,26.95,ENE,62,0.0,0.0,26,0.00,CLR,,0.55,WeatherDisplay:10.37,2013-05-11 00:33:00,
2013-05-10 20:38:00,63.5,28.0,26.95,ENE,62,3.5,0.0,26,0.00,CLR,,0.55,WeatherDisplay:10.37,2013-05-11 00:38:00,
2013-05-10 20:43:00,63.3,27.8,26.95,ENE,62,0.0,0.0,26,0.00,CLR,,0.55,WeatherDisplay:10.37,2013-05-11 00:43:00,
2013-05-10 20:48:00,63.0,27.5,26.95,ENE,62,0.0,0.0,26,0.00,CLR,,0.55,WeatherDisplay:10.37,2013-05-11 00:48:00,
2013-05-10 20:53:00,63.0,27.5,26.95,ENE,62,0.0,0.0,26,0.00,CLR,,0.55,WeatherDisplay:10.37,2013-05-11 00:53:00,
2013-05-10 20:58:00,62.8,27.4,26.95,ENE,62,0.0,0.0,26,0.00,CLR,,0.55,WeatherDisplay:10.37,2013-05-11 00:58:00,
2013-05-10 21:03:00,62.6,27.2,26.95,ENE,62,0.0,0.0,26,0.00,CLR,,0.55,WeatherDisplay:10.37,2013-05-11 01:03:00,
2013-05-10 21:08:00,62.6,27.2,26.95,ENE,62,0.0,0.0,26,0.00,CLR,,0.55,WeatherDisplay:10.37,2013-05-11 01:08:00,
2013-05-10 21:13:00,62.4,29.7,26.95,ENE,62,0.0,0.0,29,0.00,CLR,,0.55,WeatherDisplay:10.37,2013-05-11 01:13:00,
2013-05-10 21:18:00,62.4,29.7,26.95,ENE,62,0.0,0.0,29,0.00,CLR,,0.55,WeatherDisplay:10.37,2013-05-11 01:18:00,
2013-05-10 21:23:00,62.2,29.6,26.95,ENE,62,0.0,0.0,29,0.00,CLR,,0.55,WeatherDisplay:10.37,2013-05-11 01:23:00,
2013-05-10 21:28:00,61.9,29.2,26.95,ENE,62,0.0,0.0,29,0.00,CLR,,0.55,WeatherDisplay:10.37,2013-05-11 01:28:00,
2013-05-10 21:33:00,61.7,29.1,26.95,ENE,62,0.0,0.0,29,0.00,CLR,,0.55,WeatherDisplay:10.37,2013-05-11 01:33:00,
2013-05-10 21:38:00,61.5,28.9,26.95,ENE,62,0.0,0.0,29,0.00,CLR,,0.55,WeatherDisplay:10.37,2013-05-11 01:38:00,
2013-05-10 21:43:00,61.3,28.8,26.95,ENE,62,0.0,0.0,29,0.00,CLR,,0.55,WeatherDisplay:10.37,2013-05-11 01:43:00,
2013-05-10 21:48:00,61.0,30.1,26.95,ENE,62,0.0,0.0,31,0.00,CLR,,0.55,WeatherDisplay:10.37,2013-05-11 01:48:00,
2013-05-10 21:53:00,60.8,29.9,26.95,ENE,62,0.0,0.0,31,0.00,CLR,,0.55,WeatherDisplay:10.37,2013-05-11 01:53:00,
2013-05-10 21:58:00,60.6,30.6,26.95,ENE,62,0.0,0.0,32,0.00,CLR,,0.55,WeatherDisplay:10.37,2013-05-11 01:58:00,
2013-05-10 22:03:00,60.4,31.9,26.95,ENE,62,0.0,0.0,34,0.00,CLR,,0.55,WeatherDisplay:10.37,2013-05-11 02:03:00,
2013-05-10 22:08:00,60.4,30.4,26.95,ENE,62,0.0,0.0,32,0.00,CLR,,0.55,WeatherDisplay:10.37,2013-05-11 02:08:00,
2013-05-10 22:13:00,60.1,30.1,26.95,ENE,62,0.0,0.0,32,0.00,CLR,,0.55,WeatherDisplay:10.37,2013-05-11 02:13:00,
2013-05-10 22:18:00,60.1,31.6,26.95,ENE,62,0.0,0.0,34,0.00,CLR,,0.55,WeatherDisplay:10.37,2013-05-11 02:18:00,
2013-05-10 22:23:00,59.9,31.4,26.95,ENE,62,0.0,0.0,34,0.00,CLR,,0.55,WeatherDisplay:10.37,2013-05-11 02:23:00,
2013-05-10 22:28:00,59.7,31.3,26.95,ENE,62,0.0,0.0,34,0.00,CLR,,0.55,WeatherDisplay:10.37,2013-05-11 02:28:00,
2013-05-10 22:33:00,59.7,31.3,26.95,ENE,62,0.0,0.0,34,0.00,CLR,,0.55,WeatherDisplay:10.37,2013-05-11 02:33:00,
2013-05-10 22:38:00,59.9,32.2,26.95,ENE,62,0.0,0.0,35,0.00,CLR,,0.55,WeatherDisplay:10.37,2013-05-11 02:38:00,
2013-05-10 22:43:00,59.9,32.2,26.95,ENE,62,0.0,0.0,35,0.00,CLR,,0.55,WeatherDisplay:10.37,2013-05-11 02:43:00,
2013-05-10 22:48:00,60.1,33.0,26.95,ENE,62,0.0,0.0,36,0.00,CLR,,0.55,WeatherDisplay:10.37,2013-05-11 02:48:00,
2013-05-10 22:53:00,59.9,32.9,26.95,ENE,62,0.0,0.0,36,0.00,CLR,,0.55,WeatherDisplay:10.37,2013-05-11 02:53:00,
2013-05-10 22:58:00,59.9,32.9,26.95,ENE,62,0.0,0.0,36,0.00,CLR,,0.55,WeatherDisplay:10.37,2013-05-11 02:58:00,
2013-05-10 23:03:00,59.7,33.4,26.95,ENE,62,0.0,0.0,37,0.00,CLR,,0.55,WeatherDisplay:10.37,2013-05-11 03:03:00,
2013-05-10 23:08:00,59.7,33.4,26.95,ENE,62,0.0,0.0,37,0.00,CLR,,0.55,WeatherDisplay:10.37,2013-05-11 03:08:00,
2013-05-10 23:13:00,59.5,33.2,26.95,ENE,62,0.0,0.0,37,0.00,CLR,,0.55,WeatherDisplay:10.37,2013-05-11 03:13:00,
2013-05-10 23:18:00,59.4,33.1,26.95,ENE,62,0.0,0.0,37,0.00,CLR,,0.55,WeatherDisplay:10.37,2013-05-11 03:18:00,
2013-05-10 23:23:00,59.4,33.1,26.95,ENE,62,0.0,0.0,37,0.00,CLR,,0.55,WeatherDisplay:10.37,2013-05-11 03:23:00,
2013-05-10 23:28:00,59.4,33.1,26.95,ENE,62,0.0,0.0,37,0.00,CLR,,0.55,WeatherDisplay:10.37,2013-05-11 03:28:00,
2013-05-10 23:33:00,59.5,33.9,26.95,ENE,62,0.0,0.0,38,0.00,CLR,,0.55,WeatherDisplay:10.37,2013-05-11 03:33:00,
2013-05-10 23:38:00,59.5,34.5,26.95,ENE,62,0.0,0.0,39,0.00,CLR,,0.55,WeatherDisplay:10.37,2013-05-11 03:38:00,
2013-05-10 23:43:00,59.5,34.5,26.95,ENE,62,0.0,0.0,39,0.00,CLR,,0.55,WeatherDisplay:10.37,2013-05-11 03:43:00,
2013-05-10 23:48:00,59.7,34.7,26.95,ENE,62,0.0,0.0,39,0.00,CLR,,0.55,WeatherDisplay:10.37,2013-05-11 03:48:00,
2013-05-10 23:53:00,59.5,34.5,26.95,ENE,62,0.0,0.0,39,0.00,CLR,,0.55,WeatherDisplay:10.37,2013-05-11 03:53:00,
2013-05-10 23:58:00,59.4,34.4,26.95,ENE,62,0.0,0.0,39,0.00,CLR,,0.55,WeatherDisplay:10.37,2013-05-11 03:58:00,